sensor_id;sensor_type;location;lat;lon;timestamp;pressure;altitude;pressure_sealevel;temperature;humidity
55759;BME280;41678;52.126;20.664;2023-03-01T00:05:05;101695.13;;;-4.09;80.79
55759;BME280;41678;52.126;20.664;2023-03-01T00:10:26;101695.91;;;-4.10;80.66
55759;BME280;41678;52.126;20.664;2023-03-01T00:15:46;101674.53;;;-4.09;80.57
55759;BME280;41678;52.126;20.664;2023-03-01T00:21:05;101686.16;;;-4.03;80.52
55759;BME280;41678;52.126;20.664;2023-03-01T00:26:26;101676.38;;;-4.08;80.67
55759;BME280;41678;52.126;20.664;2023-03-01T00:31:45;101677.81;;;-4.12;80.96
55759;BME280;41678;52.126;20.664;2023-03-01T00:37:05;101682.25;;;-4.09;80.74
55759;BME280;41678;52.126;20.664;2023-03-01T00:42:24;101679.94;;;-4.06;80.57
55759;BME280;41678;52.126;20.664;2023-03-01T00:47:44;101665.03;;;-4.10;81.02
55759;BME280;41678;52.126;20.664;2023-03-01T00:53:03;101656.66;;;-4.08;80.99
55759;BME280;41678;52.126;20.664;2023-03-01T00:58:24;101643.69;;;-4.09;81.07
55759;BME280;41678;52.126;20.664;2023-03-01T01:03:49;101640.34;;;-4.08;81.17
55759;BME280;41678;52.126;20.664;2023-03-01T01:09:12;101632.50;;;-4.10;81.13
55759;BME280;41678;52.126;20.664;2023-03-01T01:14:38;101641.00;;;-4.11;80.92
55759;BME280;41678;52.126;20.664;2023-03-01T01:19:57;101634.41;;;-4.07;81.23
55759;BME280;41678;52.126;20.664;2023-03-01T01:25:17;101639.09;;;-4.02;81.13
55759;BME280;41678;52.126;20.664;2023-03-01T01:30:36;101625.31;;;-4.02;81.69
55759;BME280;41678;52.126;20.664;2023-03-01T01:35:56;101608.97;;;-4.03;81.28
55759;BME280;41678;52.126;20.664;2023-03-01T01:41:16;101615.03;;;-4.02;81.39
55759;BME280;41678;52.126;20.664;2023-03-01T01:46:38;101606.53;;;-4.01;81.26
55759;BME280;41678;52.126;20.664;2023-03-01T01:57:33;101597.22;;;-3.99;81.38
55759;BME280;41678;52.126;20.664;2023-03-01T02:03:02;101587.72;;;-4.00;81.42
55759;BME280;41678;52.126;20.664;2023-03-01T02:08:25;101582.78;;;-3.97;81.54
55759;BME280;41678;52.126;20.664;2023-03-01T02:13:47;101588.31;;;-4.04;81.78
55759;BME280;41678;52.126;20.664;2023-03-01T02:19:09;101594.66;;;-3.99;81.60
55759;BME280;41678;52.126;20.664;2023-03-01T02:30:11;101598.22;;;-3.97;81.41
55759;BME280;41678;52.126;20.664;2023-03-01T02:35:37;101587.06;;;-3.97;81.25
55759;BME280;41678;52.126;20.664;2023-03-01T02:40:58;101581.59;;;-4.02;81.17
55759;BME280;41678;52.126;20.664;2023-03-01T02:46:23;101580.31;;;-3.95;81.46
55759;BME280;41678;52.126;20.664;2023-03-01T02:51:52;101582.78;;;-3.97;81.52
55759;BME280;41678;52.126;20.664;2023-03-01T02:57:17;101569.63;;;-4.02;81.79
55759;BME280;41678;52.126;20.664;2023-03-01T03:02:37;101557.63;;;-4.01;81.78
55759;BME280;41678;52.126;20.664;2023-03-01T03:08:03;101562.19;;;-3.97;81.67
55759;BME280;41678;52.126;20.664;2023-03-01T03:13:26;101563.56;;;-4.02;81.77
55759;BME280;41678;52.126;20.664;2023-03-01T03:18:49;101559.34;;;-4.02;81.49
55759;BME280;41678;52.126;20.664;2023-03-01T03:24:08;101561.59;;;-4.06;81.97
55759;BME280;41678;52.126;20.664;2023-03-01T03:29:28;101550.19;;;-4.10;81.96
55759;BME280;41678;52.126;20.664;2023-03-01T03:34:47;101549.50;;;-4.07;82.07
55759;BME280;41678;52.126;20.664;2023-03-01T03:40:09;101536.53;;;-4.09;82.02
55759;BME280;41678;52.126;20.664;2023-03-01T03:45:35;101535.63;;;-4.09;81.66
55759;BME280;41678;52.126;20.664;2023-03-01T03:50:55;101526.56;;;-4.04;81.84
55759;BME280;41678;52.126;20.664;2023-03-01T03:56:15;101514.50;;;-4.05;82.03
55759;BME280;41678;52.126;20.664;2023-03-01T04:01:35;101512.59;;;-4.08;82.04
55759;BME280;41678;52.126;20.664;2023-03-01T04:06:55;101519.63;;;-4.05;81.76
55759;BME280;41678;52.126;20.664;2023-03-01T04:12:14;101506.78;;;-4.05;81.91
55759;BME280;41678;52.126;20.664;2023-03-01T04:17:33;101510.53;;;-4.00;81.74
55759;BME280;41678;52.126;20.664;2023-03-01T04:23:11;101509.66;;;-4.01;82.28
55759;BME280;41678;52.126;20.664;2023-03-01T04:28:41;101500.44;;;-3.97;82.03
55759;BME280;41678;52.126;20.664;2023-03-01T04:34:04;101508.19;;;-3.84;81.88
55759;BME280;41678;52.126;20.664;2023-03-01T04:39:24;101524.13;;;-3.89;82.65
55759;BME280;41678;52.126;20.664;2023-03-01T04:44:44;101525.63;;;-3.79;82.29
55759;BME280;41678;52.126;20.664;2023-03-01T04:50:04;101515.13;;;-3.82;82.25
55759;BME280;41678;52.126;20.664;2023-03-01T04:55:28;101506.63;;;-3.81;81.97
55759;BME280;41678;52.126;20.664;2023-03-01T05:00:48;101500.66;;;-3.80;82.57
55759;BME280;41678;52.126;20.664;2023-03-01T05:06:07;101491.16;;;-3.81;82.56
55759;BME280;41678;52.126;20.664;2023-03-01T05:11:27;101489.59;;;-3.79;82.17
55759;BME280;41678;52.126;20.664;2023-03-01T05:16:51;101476.03;;;-3.77;82.62
55759;BME280;41678;52.126;20.664;2023-03-01T05:22:10;101472.78;;;-3.74;82.67
55759;BME280;41678;52.126;20.664;2023-03-01T05:27:30;101481.50;;;-3.72;82.58
55759;BME280;41678;52.126;20.664;2023-03-01T05:32:50;101499.91;;;-3.66;82.44
55759;BME280;41678;52.126;20.664;2023-03-01T05:38:16;101503.38;;;-3.65;82.91
55759;BME280;41678;52.126;20.664;2023-03-01T05:43:35;101500.63;;;-3.68;82.79
55759;BME280;41678;52.126;20.664;2023-03-01T05:48:55;101500.94;;;-3.64;82.55
55759;BME280;41678;52.126;20.664;2023-03-01T05:54:15;101511.41;;;-3.61;82.48
55759;BME280;41678;52.126;20.664;2023-03-01T05:59:35;101519.94;;;-3.62;82.47
55759;BME280;41678;52.126;20.664;2023-03-01T06:04:55;101521.22;;;-3.55;82.83
55759;BME280;41678;52.126;20.664;2023-03-01T06:10:18;101526.56;;;-3.52;82.74
55759;BME280;41678;52.126;20.664;2023-03-01T06:15:39;101520.03;;;-3.47;82.76
55759;BME280;41678;52.126;20.664;2023-03-01T06:21:00;101525.97;;;-3.48;82.92
55759;BME280;41678;52.126;20.664;2023-03-01T06:26:20;101527.88;;;-3.45;82.89
55759;BME280;41678;52.126;20.664;2023-03-01T06:31:40;101526.97;;;-3.46;82.92
55759;BME280;41678;52.126;20.664;2023-03-01T06:36:59;101524.88;;;-3.38;82.86
55759;BME280;41678;52.126;20.664;2023-03-01T06:42:19;101517.78;;;-3.29;82.83
55759;BME280;41678;52.126;20.664;2023-03-01T06:47:39;101517.28;;;-3.23;82.92
55759;BME280;41678;52.126;20.664;2023-03-01T06:52:59;101514.22;;;-3.17;83.45
55759;BME280;41678;52.126;20.664;2023-03-01T06:58:18;101508.03;;;-3.06;83.46
55759;BME280;41678;52.126;20.664;2023-03-01T07:03:38;101518.81;;;-2.98;83.64
55759;BME280;41678;52.126;20.664;2023-03-01T07:08:57;101518.81;;;-2.85;84.08
55759;BME280;41678;52.126;20.664;2023-03-01T07:14:17;101508.41;;;-2.73;83.61
55759;BME280;41678;52.126;20.664;2023-03-01T07:19:39;101514.28;;;-2.60;84.33
55759;BME280;41678;52.126;20.664;2023-03-01T07:24:58;101506.22;;;-2.51;84.70
55759;BME280;41678;52.126;20.664;2023-03-01T07:30:18;101510.19;;;-2.28;84.72
55759;BME280;41678;52.126;20.664;2023-03-01T07:35:38;101505.16;;;-2.26;84.55
55759;BME280;41678;52.126;20.664;2023-03-01T07:41:00;101506.13;;;-2.24;84.61
55759;BME280;41678;52.126;20.664;2023-03-01T07:46:20;101497.00;;;-2.04;84.65
55759;BME280;41678;52.126;20.664;2023-03-01T07:51:39;101485.44;;;-1.96;84.53
55759;BME280;41678;52.126;20.664;2023-03-01T07:56:59;101480.56;;;-1.76;85.20
55759;BME280;41678;52.126;20.664;2023-03-01T08:02:19;101491.13;;;-1.57;85.62
55759;BME280;41678;52.126;20.664;2023-03-01T08:07:38;101489.97;;;-1.47;85.10
55759;BME280;41678;52.126;20.664;2023-03-01T08:12:57;101490.53;;;-1.21;85.37
55759;BME280;41678;52.126;20.664;2023-03-01T08:18:18;101492.63;;;-0.98;85.08
55759;BME280;41678;52.126;20.664;2023-03-01T08:23:38;101495.59;;;-0.76;85.33
55759;BME280;41678;52.126;20.664;2023-03-01T08:28:59;101492.28;;;-0.57;85.67
55759;BME280;41678;52.126;20.664;2023-03-01T08:34:19;101486.38;;;-0.37;85.44
55759;BME280;41678;52.126;20.664;2023-03-01T08:39:39;101484.59;;;-0.22;85.22
55759;BME280;41678;52.126;20.664;2023-03-01T08:45:00;101493.69;;;0.05;85.15
55759;BME280;41678;52.126;20.664;2023-03-01T08:50:19;101491.28;;;0.26;85.59
55759;BME280;41678;52.126;20.664;2023-03-01T08:55:39;101489.31;;;0.38;85.62
55759;BME280;41678;52.126;20.664;2023-03-01T09:00:58;101480.53;;;0.53;84.88
55759;BME280;41678;52.126;20.664;2023-03-01T09:06:18;101503.78;;;0.69;84.58
55759;BME280;41678;52.126;20.664;2023-03-01T09:11:38;101493.88;;;0.79;85.00
55759;BME280;41678;52.126;20.664;2023-03-01T09:16:58;101505.84;;;0.95;84.53
55759;BME280;41678;52.126;20.664;2023-03-01T09:22:18;101516.06;;;1.10;84.53
55759;BME280;41678;52.126;20.664;2023-03-01T09:27:37;101502.63;;;1.19;84.18
55759;BME280;41678;52.126;20.664;2023-03-01T09:32:57;101500.53;;;1.30;84.13
55759;BME280;41678;52.126;20.664;2023-03-01T09:38:16;101506.28;;;1.42;84.11
55759;BME280;41678;52.126;20.664;2023-03-01T09:43:51;101490.38;;;1.54;84.12
55759;BME280;41678;52.126;20.664;2023-03-01T09:49:18;101494.59;;;1.72;83.56
55759;BME280;41678;52.126;20.664;2023-03-01T09:54:38;101479.91;;;1.72;84.46
55759;BME280;41678;52.126;20.664;2023-03-01T10:00:18;101480.59;;;1.88;83.77
55759;BME280;41678;52.126;20.664;2023-03-01T10:05:50;101474.91;;;1.96;83.69
55759;BME280;41678;52.126;20.664;2023-03-01T10:11:45;101472.63;;;2.04;83.68
55759;BME280;41678;52.126;20.664;2023-03-01T10:22:47;101451.59;;;2.19;83.16
55759;BME280;41678;52.126;20.664;2023-03-01T10:28:17;101443.22;;;2.26;83.51
55759;BME280;41678;52.126;20.664;2023-03-01T10:33:40;101423.59;;;2.33;83.68
55759;BME280;41678;52.126;20.664;2023-03-01T10:39:03;101420.75;;;2.50;83.53
55759;BME280;41678;52.126;20.664;2023-03-01T10:44:49;101417.56;;;2.57;83.30
55759;BME280;41678;52.126;20.664;2023-03-01T10:50:22;101421.56;;;2.70;82.84
55759;BME280;41678;52.126;20.664;2023-03-01T10:55:42;101410.25;;;2.69;82.31
55759;BME280;41678;52.126;20.664;2023-03-01T11:01:24;101411.66;;;2.84;83.02
55759;BME280;41678;52.126;20.664;2023-03-01T11:06:58;101418.09;;;2.94;82.86
55759;BME280;41678;52.126;20.664;2023-03-01T11:12:18;101408.16;;;3.06;83.06
55759;BME280;41678;52.126;20.664;2023-03-01T11:17:43;101406.56;;;3.10;82.34
55759;BME280;41678;52.126;20.664;2023-03-01T11:23:12;101399.06;;;3.18;82.61
55759;BME280;41678;52.126;20.664;2023-03-01T11:28:32;101393.22;;;3.25;82.97
55759;BME280;41678;52.126;20.664;2023-03-01T11:39:28;101386.13;;;3.45;82.11
55759;BME280;41678;52.126;20.664;2023-03-01T11:44:54;101373.28;;;3.50;82.17
55759;BME280;41678;52.126;20.664;2023-03-01T11:50:48;101375.47;;;3.63;81.92
55759;BME280;41678;52.126;20.664;2023-03-01T12:01:47;101381.16;;;3.77;82.72
55759;BME280;41678;52.126;20.664;2023-03-01T12:24:31;101369.84;;;4.03;82.64
55759;BME280;41678;52.126;20.664;2023-03-01T12:52:16;101354.38;;;4.36;82.74
55759;BME280;41678;52.126;20.664;2023-03-01T12:58:13;101349.25;;;4.39;82.59
55759;BME280;41678;52.126;20.664;2023-03-01T13:09:30;101336.34;;;4.43;82.53
55759;BME280;41678;52.126;20.664;2023-03-01T13:14:54;101346.31;;;4.56;82.27
55759;BME280;41678;52.126;20.664;2023-03-01T13:20:17;101336.75;;;4.57;82.44
55759;BME280;41678;52.126;20.664;2023-03-01T13:26:14;101343.09;;;4.65;82.66
55759;BME280;41678;52.126;20.664;2023-03-01T13:37:09;101318.78;;;4.67;82.48
55759;BME280;41678;52.126;20.664;2023-03-01T13:42:39;101327.75;;;4.76;82.67
55759;BME280;41678;52.126;20.664;2023-03-01T13:48:04;101317.53;;;4.84;82.23
55759;BME280;41678;52.126;20.664;2023-03-01T13:53:31;101306.94;;;4.79;82.71
55759;BME280;41678;52.126;20.664;2023-03-01T13:59:05;101301.78;;;4.80;81.88
55759;BME280;41678;52.126;20.664;2023-03-01T14:04:30;101311.38;;;4.81;82.06
55759;BME280;41678;52.126;20.664;2023-03-01T14:10:02;101297.50;;;4.82;81.87
55759;BME280;41678;52.126;20.664;2023-03-01T14:20:45;101295.75;;;4.83;82.56
55759;BME280;41678;52.126;20.664;2023-03-01T14:26:10;101286.84;;;4.75;82.78
55759;BME280;41678;52.126;20.664;2023-03-01T14:31:37;101289.44;;;4.75;82.58
55759;BME280;41678;52.126;20.664;2023-03-01T14:37:10;101270.25;;;4.73;82.92
55759;BME280;41678;52.126;20.664;2023-03-01T14:42:36;101276.63;;;4.84;82.49
55759;BME280;41678;52.126;20.664;2023-03-01T14:47:59;101280.84;;;4.79;82.88
55759;BME280;41678;52.126;20.664;2023-03-01T14:53:24;101272.25;;;4.81;82.45
55759;BME280;41678;52.126;20.664;2023-03-01T14:58:45;101266.88;;;4.77;83.24
55759;BME280;41678;52.126;20.664;2023-03-01T15:04:11;101266.69;;;4.69;82.58
55759;BME280;41678;52.126;20.664;2023-03-01T15:09:34;101266.84;;;4.75;82.88
55759;BME280;41678;52.126;20.664;2023-03-01T15:14:56;101275.47;;;4.73;82.87
55759;BME280;41678;52.126;20.664;2023-03-01T15:20:18;101266.63;;;4.67;82.72
55759;BME280;41678;52.126;20.664;2023-03-01T15:25:44;101259.78;;;4.71;82.15
55759;BME280;41678;52.126;20.664;2023-03-01T15:31:22;101253.69;;;4.71;82.59
55759;BME280;41678;52.126;20.664;2023-03-01T15:36:46;101244.59;;;4.56;82.75
55759;BME280;41678;52.126;20.664;2023-03-01T15:42:51;101250.63;;;4.55;82.96
55759;BME280;41678;52.126;20.664;2023-03-01T15:48:00;101250.28;;;4.43;82.93
55759;BME280;41678;52.126;20.664;2023-03-01T15:53:26;101255.22;;;4.33;83.58
55759;BME280;41678;52.126;20.664;2023-03-01T15:58:46;101251.59;;;4.28;83.41
55759;BME280;41678;52.126;20.664;2023-03-01T16:04:06;101232.91;;;4.14;83.26
55759;BME280;41678;52.126;20.664;2023-03-01T16:09:26;101237.06;;;4.07;83.18
55759;BME280;41678;52.126;20.664;2023-03-01T16:14:46;101231.53;;;3.96;83.25
55759;BME280;41678;52.126;20.664;2023-03-01T16:20:06;101231.97;;;3.83;83.26
55759;BME280;41678;52.126;20.664;2023-03-01T16:25:25;101242.72;;;3.65;83.39
55759;BME280;41678;52.126;20.664;2023-03-01T16:30:46;101239.88;;;3.57;83.19
55759;BME280;41678;52.126;20.664;2023-03-01T16:36:08;101231.81;;;3.49;83.23
55759;BME280;41678;52.126;20.664;2023-03-01T16:41:27;101233.06;;;3.35;83.37
55759;BME280;41678;52.126;20.664;2023-03-01T16:46:47;101230.03;;;3.22;83.17
55759;BME280;41678;52.126;20.664;2023-03-01T16:52:07;101235.84;;;3.15;83.37
55759;BME280;41678;52.126;20.664;2023-03-01T16:57:26;101238.94;;;3.03;84.05
55759;BME280;41678;52.126;20.664;2023-03-01T17:02:46;101229.91;;;2.93;83.64
55759;BME280;41678;52.126;20.664;2023-03-01T17:08:06;101246.75;;;2.79;84.06
55759;BME280;41678;52.126;20.664;2023-03-01T17:13:25;101239.44;;;2.68;83.72
55759;BME280;41678;52.126;20.664;2023-03-01T17:18:45;101248.75;;;2.62;83.74
55759;BME280;41678;52.126;20.664;2023-03-01T17:24:05;101254.28;;;2.47;83.88
55759;BME280;41678;52.126;20.664;2023-03-01T17:29:25;101252.16;;;2.36;83.88
55759;BME280;41678;52.126;20.664;2023-03-01T17:34:44;101251.78;;;2.27;83.70
55759;BME280;41678;52.126;20.664;2023-03-01T17:40:06;101248.84;;;2.18;83.85
55759;BME280;41678;52.126;20.664;2023-03-01T17:45:26;101248.50;;;2.08;83.89
55759;BME280;41678;52.126;20.664;2023-03-01T17:50:45;101247.31;;;2.00;83.64
55759;BME280;41678;52.126;20.664;2023-03-01T17:56:05;101246.09;;;1.90;83.98
55759;BME280;41678;52.126;20.664;2023-03-01T18:01:25;101236.78;;;1.74;83.80
55759;BME280;41678;52.126;20.664;2023-03-01T18:06:45;101250.28;;;1.65;83.67
55759;BME280;41678;52.126;20.664;2023-03-01T18:12:04;101254.34;;;1.59;84.25
55759;BME280;41678;52.126;20.664;2023-03-01T18:17:24;101240.03;;;1.47;83.87
55759;BME280;41678;52.126;20.664;2023-03-01T18:22:44;101251.97;;;1.44;83.86
55759;BME280;41678;52.126;20.664;2023-03-01T18:28:04;101242.00;;;1.32;83.78
55759;BME280;41678;52.126;20.664;2023-03-01T18:33:24;101246.13;;;1.26;83.74
55759;BME280;41678;52.126;20.664;2023-03-01T18:38:44;101237.22;;;1.21;84.06
55759;BME280;41678;52.126;20.664;2023-03-01T18:44:04;101240.16;;;1.08;83.71
55759;BME280;41678;52.126;20.664;2023-03-01T18:49:25;101234.81;;;1.05;84.09
55759;BME280;41678;52.126;20.664;2023-03-01T18:54:44;101232.72;;;0.96;84.23
55759;BME280;41678;52.126;20.664;2023-03-01T19:00:04;101223.66;;;0.86;84.25
55759;BME280;41678;52.126;20.664;2023-03-01T19:05:24;101226.03;;;0.81;83.52
55759;BME280;41678;52.126;20.664;2023-03-01T19:10:43;101219.56;;;0.72;84.10
55759;BME280;41678;52.126;20.664;2023-03-01T19:16:05;101246.94;;;0.65;84.20
55759;BME280;41678;52.126;20.664;2023-03-01T19:21:28;101250.13;;;0.59;83.97
55759;BME280;41678;52.126;20.664;2023-03-01T19:26:48;101253.97;;;0.48;84.28
55759;BME280;41678;52.126;20.664;2023-03-01T19:32:08;101259.88;;;0.45;84.19
55759;BME280;41678;52.126;20.664;2023-03-01T19:37:28;101263.78;;;0.35;83.75
55759;BME280;41678;52.126;20.664;2023-03-01T19:42:47;101254.09;;;0.31;84.14
55759;BME280;41678;52.126;20.664;2023-03-01T19:48:07;101267.69;;;0.27;84.15
55759;BME280;41678;52.126;20.664;2023-03-01T19:53:26;101264.84;;;0.21;83.69
55759;BME280;41678;52.126;20.664;2023-03-01T19:58:46;101256.94;;;0.18;84.11
55759;BME280;41678;52.126;20.664;2023-03-01T20:04:08;101254.03;;;0.11;83.83
55759;BME280;41678;52.126;20.664;2023-03-01T20:09:28;101266.75;;;0.07;84.14
55759;BME280;41678;52.126;20.664;2023-03-01T20:14:48;101255.25;;;0.00;84.30
55759;BME280;41678;52.126;20.664;2023-03-01T20:20:10;101266.41;;;-0.01;83.82
55759;BME280;41678;52.126;20.664;2023-03-01T20:25:29;101270.56;;;-0.05;84.03
55759;BME280;41678;52.126;20.664;2023-03-01T20:30:49;101279.06;;;-0.07;84.29
55759;BME280;41678;52.126;20.664;2023-03-01T20:36:10;101286.53;;;-0.13;83.88
55759;BME280;41678;52.126;20.664;2023-03-01T20:41:29;101277.66;;;-0.19;83.77
55759;BME280;41678;52.126;20.664;2023-03-01T20:46:49;101266.28;;;-0.22;83.94
55759;BME280;41678;52.126;20.664;2023-03-01T20:52:09;101276.41;;;-0.27;83.89
55759;BME280;41678;52.126;20.664;2023-03-01T20:57:30;101277.03;;;-0.31;83.78
55759;BME280;41678;52.126;20.664;2023-03-01T21:02:49;101269.81;;;-0.38;84.33
55759;BME280;41678;52.126;20.664;2023-03-01T21:08:08;101269.59;;;-0.43;84.08
55759;BME280;41678;52.126;20.664;2023-03-01T21:13:29;101268.53;;;-0.47;84.59
55759;BME280;41678;52.126;20.664;2023-03-01T21:18:49;101269.19;;;-0.51;84.30
55759;BME280;41678;52.126;20.664;2023-03-01T21:24:09;101262.78;;;-0.59;84.10
55759;BME280;41678;52.126;20.664;2023-03-01T21:29:32;101267.88;;;-0.61;84.03
55759;BME280;41678;52.126;20.664;2023-03-01T21:34:51;101266.91;;;-0.63;84.01
55759;BME280;41678;52.126;20.664;2023-03-01T21:40:11;101257.94;;;-0.69;83.93
55759;BME280;41678;52.126;20.664;2023-03-01T21:45:33;101253.34;;;-0.75;84.03
55759;BME280;41678;52.126;20.664;2023-03-01T21:50:58;101255.84;;;-0.77;83.82
55759;BME280;41678;52.126;20.664;2023-03-01T21:56:20;101251.81;;;-0.72;84.31
55759;BME280;41678;52.126;20.664;2023-03-01T22:01:41;101247.13;;;-0.79;84.02
55759;BME280;41678;52.126;20.664;2023-03-01T22:07:00;101240.75;;;-0.86;84.26
55759;BME280;41678;52.126;20.664;2023-03-01T22:12:20;101243.13;;;-0.90;84.12
55759;BME280;41678;52.126;20.664;2023-03-01T22:17:39;101243.78;;;-0.94;84.51
55759;BME280;41678;52.126;20.664;2023-03-01T22:22:59;101235.06;;;-0.96;84.19
55759;BME280;41678;52.126;20.664;2023-03-01T22:28:18;101231.25;;;-1.03;84.21
55759;BME280;41678;52.126;20.664;2023-03-01T22:33:38;101238.97;;;-1.05;84.38
55759;BME280;41678;52.126;20.664;2023-03-01T22:38:57;101233.63;;;-1.08;84.90
55759;BME280;41678;52.126;20.664;2023-03-01T22:44:22;101229.09;;;-1.12;84.37
55759;BME280;41678;52.126;20.664;2023-03-01T22:49:41;101234.03;;;-1.17;84.16
55759;BME280;41678;52.126;20.664;2023-03-01T22:55:02;101233.88;;;-1.20;84.35
55759;BME280;41678;52.126;20.664;2023-03-01T23:00:22;101232.09;;;-1.21;84.17
55759;BME280;41678;52.126;20.664;2023-03-01T23:05:42;101232.66;;;-1.26;84.71
55759;BME280;41678;52.126;20.664;2023-03-01T23:11:02;101233.38;;;-1.29;84.79
55759;BME280;41678;52.126;20.664;2023-03-01T23:16:22;101236.56;;;-1.35;84.54
55759;BME280;41678;52.126;20.664;2023-03-01T23:21:44;101242.53;;;-1.36;84.12
55759;BME280;41678;52.126;20.664;2023-03-01T23:27:08;101232.03;;;-1.39;84.15
55759;BME280;41678;52.126;20.664;2023-03-01T23:32:28;101242.53;;;-1.36;84.31
55759;BME280;41678;52.126;20.664;2023-03-01T23:37:48;101239.63;;;-1.42;84.62
55759;BME280;41678;52.126;20.664;2023-03-01T23:43:07;101228.31;;;-1.44;84.10
55759;BME280;41678;52.126;20.664;2023-03-01T23:48:27;101231.41;;;-1.51;84.33
55759;BME280;41678;52.126;20.664;2023-03-01T23:53:51;101241.75;;;-1.51;84.38
55759;BME280;41678;52.126;20.664;2023-03-01T23:59:16;101238.97;;;-1.54;84.49
